Gardiner, Maine
Current Conditions -  °F | °C
As of 2:53 PM on Thursday 30 Oct 2014 (Local Time) from KAUG Reporting Station
Scattered Clouds Scattered Clouds  
Wind Chill: 54°   Ceiling: Unl
Heat Index: 54°   Visibility: 10mi
Dew Point: 38°   Wind: 5mph
Humidity: 55%   Direction: 310°NW
Pressure: 29.88"   Gusts: NA
Location:  44.23°N, 69.77°W
Report Text: KAUG 301853Z AUTO 31004KT 10SM SCT055 12/03 A2988 RMK AO2 SLP119 T01220033
Loading
Personal Weather Stations






























Interactive Weather Map
Tropical Storm Tracking
New forecast layout! Learn more

10-Day Weather Forecast

Advertisements
Track Severe Weather on mobile